createdAt,value
2022-08-17T00:00:42.789Z,23.90
2022-08-17T00:03:15.128Z,22.55
2022-08-17T00:05:48.092Z,24.23
2022-08-17T00:08:19.064Z,22.23
2022-08-17T00:10:48.871Z,23.17
2022-08-17T00:13:20.481Z,21.90
2022-08-17T00:15:48.935Z,21.83
2022-08-17T00:18:58.328Z,21.42
2022-08-17T00:21:10.420Z,20.85
2022-08-17T00:23:44.242Z,23.98
2022-08-17T00:26:34.590Z,22.00
2022-08-17T00:29:06.793Z,21.40
2022-08-17T00:31:35.684Z,22.05
2022-08-17T00:34:04.461Z,23.65
2022-08-17T00:36:32.539Z,22.33
2022-08-17T00:39:00.598Z,23.30
2022-08-17T00:41:32.582Z,24.92
2022-08-17T00:44:03.962Z,24.60
2022-08-17T00:46:35.986Z,22.35
2022-08-17T00:49:05.863Z,23.60
2022-08-17T00:51:38.856Z,22.95
2022-08-17T00:54:12.826Z,23.05
2022-08-17T00:56:57.518Z,23.55
2022-08-17T00:59:30.935Z,24.10
2022-08-17T01:01:59.569Z,24.05
2022-08-17T01:04:30.192Z,25.05
2022-08-17T01:07:02.054Z,22.23
2022-08-17T01:09:30.249Z,23.43
2022-08-17T01:12:01.559Z,24.13
2022-08-17T01:14:29.749Z,24.42
2022-08-17T01:16:58.018Z,25.33
2022-08-17T01:19:29.127Z,23.73
2022-08-17T01:22:04.663Z,23.38
2022-08-17T01:24:38.259Z,23.27
2022-08-17T01:27:10.309Z,23.10
2022-08-17T01:29:42.191Z,24.38
2022-08-17T01:32:11.121Z,24.13
2022-08-17T01:34:43.809Z,24.98
2022-08-17T01:37:19.797Z,23.85
2022-08-17T01:39:53.740Z,25.45
2022-08-17T01:42:28.079Z,27.80
2022-08-17T01:44:58.944Z,25.25
2022-08-17T01:47:27.236Z,25.40
2022-08-17T01:49:59.765Z,24.63
2022-08-17T01:52:29.006Z,24.75
2022-08-17T01:54:58.668Z,25.60
2022-08-17T01:57:26.743Z,25.63
2022-08-17T02:00:12.862Z,25.77
2022-08-17T02:02:46.640Z,26.27
2022-08-17T02:05:35.058Z,25.50
2022-08-17T02:08:07.321Z,25.23
2022-08-17T02:10:37.520Z,26.23
2022-08-17T02:13:15.219Z,26.20
2022-08-17T02:15:43.747Z,25.13
2022-08-17T02:18:14.462Z,26.02
2022-08-17T02:20:44.203Z,26.25
2022-08-17T02:23:14.476Z,26.85
2022-08-17T02:25:48.771Z,25.80
2022-08-17T02:28:17.831Z,24.45
2022-08-17T02:31:01.331Z,26.70
2022-08-17T02:33:42.503Z,25.90
2022-08-17T02:36:31.923Z,27.00
2022-08-17T02:39:07.422Z,29.90
2022-08-17T02:41:47.522Z,26.00
2022-08-17T02:44:38.942Z,27.00
2022-08-17T02:47:04.858Z,26.38
2022-08-17T02:49:32.994Z,26.48
2022-08-17T02:52:04.069Z,30.95
2022-08-17T02:54:40.053Z,27.27
2022-08-17T02:57:12.903Z,27.42
2022-08-17T02:59:46.778Z,32.65
2022-08-17T03:02:17.008Z,26.02
2022-08-17T03:04:45.074Z,26.27
2022-08-17T03:07:22.998Z,28.63
2022-08-17T03:09:57.293Z,26.75
2022-08-17T03:12:33.530Z,27.00
2022-08-17T03:15:04.511Z,26.90
2022-08-17T03:17:32.543Z,26.60
2022-08-17T03:20:00.706Z,27.27
2022-08-17T03:22:36.247Z,25.50
2022-08-17T03:25:10.516Z,26.25
2022-08-17T03:27:42.073Z,26.10
2022-08-17T03:30:14.179Z,25.45
2022-08-17T03:32:46.581Z,24.65
2022-08-17T03:35:17.841Z,25.92
2022-08-17T03:37:47.720Z,27.20
2022-08-17T03:40:37.013Z,25.38
2022-08-17T03:43:19.096Z,30.45
2022-08-17T03:46:04.563Z,27.10
2022-08-17T03:48:51.509Z,24.38
2022-08-17T03:51:45.904Z,26.20
2022-08-17T03:54:38.833Z,26.77
2022-08-17T03:57:10.180Z,28.15
2022-08-17T03:59:42.098Z,27.98
2022-08-17T04:02:16.011Z,25.48
2022-08-17T04:04:44.108Z,25.05
2022-08-17T04:07:12.459Z,26.95
2022-08-17T04:09:40.536Z,25.95
2022-08-17T04:12:08.952Z,29.30
2022-08-17T04:14:52.715Z,26.83
2022-08-17T04:17:26.094Z,25.30
2022-08-17T04:19:55.449Z,24.80
2022-08-17T04:22:30.415Z,26.23
2022-08-17T04:25:04.959Z,25.13
2022-08-17T04:27:33.846Z,25.20
2022-08-17T04:30:02.324Z,24.30
2022-08-17T04:33:04.429Z,23.00
2022-08-17T04:35:22.514Z,22.17
2022-08-17T04:37:51.051Z,23.05
2022-08-17T04:40:37.972Z,25.83
2022-08-17T04:43:09.026Z,22.73
2022-08-17T04:45:40.870Z,22.75
2022-08-17T04:48:33.374Z,22.55
2022-08-17T04:51:06.039Z,24.48
2022-08-17T04:53:34.185Z,24.60
2022-08-17T04:56:02.340Z,21.08
2022-08-17T04:58:32.426Z,22.52
2022-08-17T05:01:01.502Z,22.17
2022-08-17T05:03:37.632Z,22.70
2022-08-17T05:06:08.829Z,22.38
2022-08-17T05:08:38.864Z,23.98
2022-08-17T05:11:09.303Z,23.00
2022-08-17T05:13:37.645Z,21.40
2022-08-17T05:16:06.218Z,22.77
2022-08-17T05:18:37.288Z,21.63
2022-08-17T05:21:06.721Z,26.90
2022-08-17T05:23:42.626Z,23.27
2022-08-17T05:26:23.129Z,22.17
2022-08-17T05:28:56.956Z,23.23
2022-08-17T05:31:27.229Z,23.40
2022-08-17T05:33:58.311Z,21.10
2022-08-17T05:36:41.902Z,21.67
2022-08-17T05:39:16.810Z,20.45
2022-08-17T05:41:47.709Z,22.33
2022-08-17T05:44:15.941Z,20.63
2022-08-17T05:46:49.905Z,20.13
2022-08-17T05:52:20.738Z,20.53
2022-08-17T05:55:06.144Z,20.73
2022-08-17T05:57:53.035Z,19.83
2022-08-17T06:00:30.112Z,18.55
2022-08-17T06:03:17.588Z,20.85
2022-08-17T06:05:59.977Z,22.90
2022-08-17T06:08:36.145Z,18.55
2022-08-17T06:11:14.447Z,19.95
2022-08-17T06:14:04.148Z,19.67
2022-08-17T06:16:37.732Z,18.77
2022-08-17T06:19:14.538Z,20.55
2022-08-17T06:21:48.970Z,19.67
2022-08-17T06:24:35.028Z,19.83
2022-08-17T06:27:12.551Z,20.85
2022-08-17T06:29:54.764Z,21.98
2022-08-17T06:32:23.228Z,24.33
2022-08-17T06:34:54.070Z,25.20
2022-08-17T06:37:55.345Z,21.85
2022-08-17T06:40:45.613Z,22.95
2022-08-17T06:43:28.091Z,23.33
2022-08-17T06:46:04.107Z,24.85
2022-08-17T06:48:41.943Z,23.23
2022-08-17T06:51:18.891Z,23.17
2022-08-17T06:53:54.102Z,23.65
2022-08-17T06:56:54.586Z,23.67
2022-08-17T06:59:26.529Z,23.42
2022-08-17T07:02:29.036Z,23.08
2022-08-17T07:05:16.725Z,24.48
2022-08-17T07:08:09.391Z,23.60
2022-08-17T07:10:42.669Z,27.88
2022-08-17T07:13:35.202Z,24.67
2022-08-17T07:16:12.531Z,24.67
2022-08-17T07:18:40.697Z,24.40
2022-08-17T07:21:26.176Z,25.85
2022-08-17T07:24:08.048Z,27.73
2022-08-17T07:26:36.633Z,23.58
2022-08-17T07:29:06.950Z,23.45
2022-08-17T07:31:35.228Z,23.40
2022-08-17T07:34:08.469Z,25.58
2022-08-17T07:36:36.627Z,22.02
2022-08-17T07:39:06.290Z,23.77
2022-08-17T07:41:57.504Z,22.70
2022-08-17T07:44:29.133Z,23.60
2022-08-17T07:47:15.077Z,23.27
2022-08-17T07:49:46.882Z,23.80
2022-08-17T07:52:50.372Z,25.00
2022-08-17T07:55:30.434Z,22.00
2022-08-17T07:58:01.908Z,23.70
2022-08-17T08:00:34.342Z,24.02
2022-08-17T08:03:14.861Z,24.55
2022-08-17T08:05:53.092Z,23.90
2022-08-17T08:08:28.516Z,24.05
2022-08-17T08:11:11.764Z,22.38
2022-08-17T08:13:44.050Z,25.45
2022-08-17T08:16:29.345Z,23.33
2022-08-17T08:19:00.195Z,23.58
2022-08-17T08:21:46.531Z,24.33
2022-08-17T08:24:36.393Z,25.25
2022-08-17T08:27:19.330Z,23.92
2022-08-17T08:32:33.541Z,25.85
2022-08-17T08:35:07.433Z,25.92
2022-08-17T08:37:44.651Z,23.27
2022-08-17T08:40:33.380Z,22.95
2022-08-17T08:43:15.233Z,26.13
2022-08-17T08:45:53.060Z,23.33
2022-08-17T08:48:53.955Z,22.52
2022-08-17T08:51:40.076Z,22.40
2022-08-17T08:57:19.146Z,20.52
2022-08-17T09:02:20.990Z,20.23
2022-08-17T09:05:20.361Z,20.40
2022-08-17T09:07:58.560Z,20.60
2022-08-17T09:10:32.016Z,20.77
2022-08-17T09:13:10.223Z,20.88
2022-08-17T09:15:43.635Z,20.05
2022-08-17T09:18:58.977Z,21.88
2022-08-17T09:21:18.179Z,20.73
2022-08-17T09:23:59.682Z,23.63
2022-08-17T09:26:32.465Z,19.45
2022-08-17T09:29:04.789Z,19.83
2022-08-17T09:31:35.559Z,20.05
2022-08-17T09:34:19.394Z,20.70
2022-08-17T09:39:29.302Z,20.77
2022-08-17T09:42:06.017Z,22.33
2022-08-17T09:44:41.110Z,19.23
2022-08-17T09:47:15.660Z,19.52
2022-08-17T09:49:48.965Z,21.20
2022-08-17T09:52:22.586Z,22.33
2022-08-17T09:54:52.533Z,21.38
2022-08-17T09:57:40.001Z,21.40
2022-08-17T10:00:20.509Z,19.50
2022-08-17T10:03:22.185Z,16.58
2022-08-17T10:05:57.172Z,19.30
2022-08-17T10:08:37.282Z,20.92
2022-08-17T10:11:16.229Z,18.23
2022-08-17T10:13:53.084Z,20.27
2022-08-17T10:16:31.726Z,18.90
2022-08-17T10:19:13.772Z,19.88
2022-08-17T10:22:32.437Z,20.03
2022-08-17T10:25:22.137Z,18.25
2022-08-17T10:27:55.544Z,20.55
2022-08-17T10:30:27.772Z,20.15
2022-08-17T10:32:59.304Z,19.33
2022-08-17T10:35:35.549Z,19.92
2022-08-17T10:38:38.719Z,20.15
2022-08-17T10:41:21.852Z,21.73
2022-08-17T10:44:39.482Z,23.25
2022-08-17T10:47:04.488Z,20.80
2022-08-17T10:49:35.047Z,21.38
2022-08-17T10:52:26.225Z,21.95
2022-08-17T10:55:14.553Z,22.92
2022-08-17T10:57:44.824Z,21.70
2022-08-17T11:00:36.195Z,23.10
2022-08-17T11:03:19.766Z,20.48
2022-08-17T11:05:59.071Z,19.70
2022-08-17T11:09:21.032Z,22.48
2022-08-17T11:12:10.062Z,23.23
2022-08-17T11:14:55.418Z,21.83
2022-08-17T11:17:51.271Z,21.10
2022-08-17T11:20:57.819Z,20.13
2022-08-17T11:23:59.891Z,19.15
2022-08-17T11:26:31.990Z,19.45
2022-08-17T11:29:09.565Z,19.25
2022-08-17T11:31:43.474Z,21.88
2022-08-17T11:34:19.788Z,22.98
2022-08-17T11:37:06.199Z,21.52
2022-08-17T11:39:56.236Z,21.45
2022-08-17T11:42:39.716Z,21.67
2022-08-17T11:45:38.235Z,21.65
2022-08-17T11:48:35.712Z,23.58
2022-08-17T11:51:42.272Z,24.77
2022-08-17T11:54:34.354Z,26.55
2022-08-17T11:57:41.646Z,29.00
2022-08-17T12:00:57.650Z,28.85
2022-08-17T12:03:54.019Z,28.50
2022-08-17T12:06:45.141Z,29.90
2022-08-17T12:09:20.046Z,29.45
2022-08-17T12:12:13.116Z,30.58
2022-08-17T12:17:39.383Z,31.17
2022-08-17T12:20:21.533Z,32.03
2022-08-17T12:22:57.639Z,29.58
2022-08-17T12:25:35.795Z,29.42
2022-08-17T12:28:06.666Z,31.17
2022-08-17T12:30:36.690Z,31.73
2022-08-17T12:33:28.659Z,30.55
2022-08-17T12:36:03.101Z,28.67
2022-08-17T12:41:24.535Z,30.10
2022-08-17T12:44:02.665Z,30.27
2022-08-17T12:46:35.067Z,29.55
2022-08-17T12:49:35.940Z,29.02
2022-08-17T12:52:13.663Z,27.77
2022-08-17T12:55:04.796Z,27.63
2022-08-17T12:57:45.158Z,29.80
2022-08-17T13:00:17.854Z,28.98
2022-08-17T13:05:25.923Z,28.33
2022-08-17T13:08:00.435Z,29.63
2022-08-17T13:10:33.020Z,28.52
2022-08-17T13:15:38.403Z,29.00
2022-08-17T13:18:47.019Z,29.75
2022-08-17T13:21:38.643Z,28.67
2022-08-17T13:24:37.758Z,28.73
2022-08-17T13:27:10.066Z,28.88
2022-08-17T13:29:51.321Z,29.05
2022-08-17T13:32:24.069Z,31.08
2022-08-17T13:35:13.811Z,32.50
2022-08-17T13:38:02.355Z,30.67
2022-08-17T13:40:37.814Z,32.45
2022-08-17T13:43:06.763Z,33.28
2022-08-17T13:45:54.574Z,33.20
2022-08-17T13:48:27.048Z,32.88
2022-08-17T13:51:25.894Z,34.20
2022-08-17T13:54:24.476Z,33.42
2022-08-17T13:56:58.594Z,33.60
2022-08-17T13:59:54.728Z,35.33
2022-08-17T14:02:28.972Z,34.40
2022-08-17T14:05:00.530Z,35.63
2022-08-17T14:07:33.893Z,35.95
2022-08-17T14:10:08.758Z,36.30
2022-08-17T14:12:41.333Z,34.42
2022-08-17T14:15:12.471Z,35.75
2022-08-17T14:17:50.225Z,35.80
2022-08-17T14:20:24.089Z,36.70
2022-08-17T14:22:54.218Z,35.78
2022-08-17T14:25:25.964Z,36.28
2022-08-17T14:27:56.101Z,34.17
2022-08-17T14:30:30.826Z,36.53
2022-08-17T14:32:59.608Z,37.92
2022-08-17T14:35:30.622Z,34.28
2022-08-17T14:38:06.670Z,35.80
2022-08-17T14:40:36.949Z,36.72
2022-08-17T14:43:05.139Z,34.83
2022-08-17T14:45:33.596Z,35.97
2022-08-17T14:48:07.697Z,34.38
2022-08-17T14:50:43.237Z,36.83
2022-08-17T14:53:18.183Z,34.83
2022-08-17T14:55:51.516Z,35.38
2022-08-17T14:58:20.073Z,36.05
2022-08-17T15:00:50.960Z,37.25
2022-08-17T15:03:41.699Z,36.83
2022-08-17T15:06:16.439Z,36.28
2022-08-17T15:08:44.753Z,38.95
2022-08-17T15:11:15.056Z,36.08
2022-08-17T15:13:52.585Z,37.47
2022-08-17T15:16:27.018Z,35.30
2022-08-17T15:18:55.292Z,36.17
2022-08-17T15:21:23.711Z,36.20
2022-08-17T15:23:51.854Z,37.55
2022-08-17T15:26:26.035Z,41.38
2022-08-17T15:28:57.591Z,37.15
2022-08-17T15:31:31.701Z,37.30
2022-08-17T15:34:01.060Z,37.00
2022-08-17T15:36:30.773Z,35.63
2022-08-17T15:39:00.112Z,35.30
2022-08-17T15:41:29.677Z,32.05
2022-08-17T15:44:02.923Z,34.53
2022-08-17T15:46:31.199Z,33.53
2022-08-17T15:49:03.782Z,35.22
2022-08-17T15:51:34.472Z,34.75
2022-08-17T15:54:18.735Z,33.90
2022-08-17T15:56:52.590Z,34.00
2022-08-17T15:59:20.707Z,33.10
2022-08-17T16:03:13.662Z,33.35
2022-08-17T16:04:38.012Z,33.53
2022-08-17T16:07:11.308Z,34.83
2022-08-17T16:09:39.563Z,30.85
2022-08-17T16:12:14.183Z,31.73
2022-08-17T16:14:42.226Z,33.15
2022-08-17T16:17:38.747Z,34.88
2022-08-17T16:20:01.608Z,33.05
2022-08-17T16:22:35.219Z,33.28
2022-08-17T16:25:06.751Z,31.98
2022-08-17T16:27:39.390Z,33.35
2022-08-17T16:32:47.656Z,35.00
2022-08-17T16:35:27.503Z,37.67
2022-08-17T16:37:58.395Z,36.83
2022-08-17T16:40:28.763Z,39.95
2022-08-17T16:42:58.212Z,40.30
2022-08-17T16:45:29.453Z,39.03
2022-08-17T16:48:00.102Z,38.35
2022-08-17T16:50:28.227Z,36.30
2022-08-17T16:53:06.505Z,38.00
2022-08-17T16:55:39.112Z,38.95
2022-08-17T16:58:08.934Z,39.05
2022-08-17T17:00:41.692Z,38.00
2022-08-17T17:03:18.968Z,39.42
2022-08-17T17:06:06.347Z,38.55
2022-08-17T17:08:40.666Z,38.72
2022-08-17T17:11:14.814Z,40.15
2022-08-17T17:13:50.060Z,39.03
2022-08-17T17:16:23.663Z,38.15
2022-08-17T17:19:07.026Z,39.92
2022-08-17T17:21:42.963Z,39.05
2022-08-17T17:24:18.865Z,40.25
2022-08-17T17:27:01.397Z,39.65
2022-08-17T17:29:48.610Z,40.13
2022-08-17T17:32:24.821Z,40.20
2022-08-17T17:35:01.451Z,38.30
2022-08-17T17:37:34.990Z,38.03
2022-08-17T17:40:09.552Z,39.28
2022-08-17T17:42:42.124Z,38.40
2022-08-17T17:45:20.001Z,38.60
2022-08-17T17:47:50.509Z,38.13
2022-08-17T17:50:34.664Z,39.60
2022-08-17T17:53:07.586Z,40.63
2022-08-17T17:55:47.607Z,42.30
2022-08-17T17:58:44.126Z,41.15
2022-08-17T18:01:24.054Z,41.65
2022-08-17T18:04:20.234Z,34.75
2022-08-17T18:07:05.118Z,28.17
2022-08-17T18:10:05.107Z,31.75
2022-08-17T18:12:56.503Z,29.52
2022-08-17T18:15:33.294Z,26.15
2022-08-17T18:18:33.216Z,21.83
2022-08-17T18:21:06.546Z,23.15
2022-08-17T18:23:36.472Z,21.10
2022-08-17T18:26:04.600Z,29.02
2022-08-17T18:28:38.480Z,32.63
2022-08-17T18:31:13.917Z,40.92
2022-08-17T18:33:52.446Z,42.53
2022-08-17T18:36:28.937Z,42.35
2022-08-17T18:39:11.933Z,41.67
2022-08-17T18:41:42.671Z,42.80
2022-08-17T18:44:25.098Z,41.92
2022-08-17T18:47:18.876Z,43.05
2022-08-17T18:49:56.368Z,43.63
2022-08-17T18:52:28.047Z,42.47
2022-08-17T18:55:03.996Z,42.47
2022-08-17T18:57:42.765Z,43.20
2022-08-17T19:00:19.288Z,45.08
2022-08-17T19:02:53.642Z,44.00
2022-08-17T19:05:36.018Z,46.85
2022-08-17T19:08:22.525Z,46.85
2022-08-17T19:10:54.281Z,44.45
2022-08-17T19:13:26.804Z,44.33
2022-08-17T19:16:12.127Z,45.67
2022-08-17T19:18:47.933Z,47.63
2022-08-17T19:23:55.191Z,45.55
2022-08-17T19:26:50.656Z,44.25
2022-08-17T19:29:19.471Z,46.20
2022-08-17T19:31:50.560Z,45.97
2022-08-17T19:34:30.064Z,46.15
2022-08-17T19:37:10.303Z,44.22
2022-08-17T19:39:49.356Z,44.72
2022-08-17T19:42:31.136Z,45.78
2022-08-17T19:45:05.381Z,44.92
2022-08-17T19:47:55.182Z,43.70
2022-08-17T19:50:38.527Z,45.05
2022-08-17T19:53:19.926Z,44.00
2022-08-17T19:55:58.484Z,43.38
2022-08-17T19:58:41.262Z,45.30
2022-08-17T20:01:23.442Z,46.88
2022-08-17T20:03:57.585Z,43.38
2022-08-17T20:06:30.237Z,46.17
2022-08-17T20:09:15.046Z,46.67
2022-08-17T20:11:49.270Z,46.00
2022-08-17T20:14:22.459Z,48.30
2022-08-17T20:16:52.220Z,47.33
2022-08-17T20:19:30.324Z,48.92
2022-08-17T20:22:04.090Z,47.42
2022-08-17T20:24:43.499Z,49.13
2022-08-17T20:27:17.765Z,50.38
2022-08-17T20:30:09.300Z,50.70
2022-08-17T20:32:52.533Z,51.53
2022-08-17T20:35:26.508Z,52.00
2022-08-17T20:37:57.987Z,52.50
2022-08-17T20:40:35.555Z,54.53
2022-08-17T20:43:49.076Z,57.15
2022-08-17T20:46:31.482Z,55.75
2022-08-17T20:49:14.965Z,56.25
2022-08-17T20:52:01.382Z,56.85
2022-08-17T20:54:50.338Z,57.53
2022-08-17T20:57:48.655Z,57.92
2022-08-17T21:00:44.924Z,58.40
2022-08-17T21:03:51.903Z,57.22
2022-08-17T21:06:26.446Z,55.40
2022-08-17T21:09:19.422Z,56.15
2022-08-17T21:12:04.410Z,56.60
2022-08-17T21:15:00.276Z,57.72
2022-08-17T21:17:47.761Z,55.15
2022-08-17T21:20:32.595Z,56.67
2022-08-17T21:23:19.210Z,56.80
2022-08-17T21:26:10.308Z,56.22
2022-08-17T21:29:00.804Z,59.58
2022-08-17T21:31:34.866Z,60.58
2022-08-17T21:34:25.994Z,59.83
2022-08-17T21:36:54.194Z,60.15
2022-08-17T21:39:33.399Z,62.13
2022-08-17T21:42:02.402Z,60.58
2022-08-17T21:44:36.893Z,59.55
2022-08-17T21:47:20.739Z,59.95
2022-08-17T21:49:49.397Z,59.83
2022-08-17T21:52:21.217Z,61.20
2022-08-17T21:54:53.037Z,62.55
2022-08-17T21:57:24.306Z,61.88
2022-08-17T21:59:56.227Z,63.72
2022-08-17T22:02:36.490Z,62.77
2022-08-17T22:05:08.514Z,63.88
2022-08-17T22:07:39.990Z,64.30
2022-08-17T22:10:27.358Z,64.93
2022-08-17T22:13:16.511Z,64.05
2022-08-17T22:15:47.668Z,66.22
2022-08-17T22:18:22.551Z,65.88
2022-08-17T22:20:52.721Z,64.85
2022-08-17T22:23:43.402Z,66.35
2022-08-17T22:26:14.845Z,66.30
2022-08-17T22:28:46.844Z,69.03
2022-08-17T22:31:17.807Z,67.45
2022-08-17T22:33:51.522Z,67.03
2022-08-17T22:36:25.888Z,69.10
2022-08-17T22:38:55.890Z,67.10
2022-08-17T22:41:45.161Z,66.28
2022-08-17T22:44:27.212Z,68.85
2022-08-17T22:47:00.251Z,63.47
2022-08-17T22:49:35.843Z,60.88
2022-08-17T22:52:23.469Z,62.78
2022-08-17T22:55:30.374Z,63.45
2022-08-17T22:58:16.318Z,62.88
2022-08-17T23:00:48.622Z,59.53
2022-08-17T23:03:19.303Z,62.25
2022-08-17T23:06:03.450Z,64.55
2022-08-17T23:08:33.763Z,57.33
2022-08-17T23:11:02.137Z,60.65
2022-08-17T23:13:33.378Z,58.60
2022-08-17T23:16:02.258Z,62.00
2022-08-17T23:18:30.459Z,62.60
2022-08-17T23:21:01.012Z,54.95
2022-08-17T23:25:59.816Z,52.63
2022-08-17T23:28:28.676Z,52.38
2022-08-17T23:30:56.732Z,56.92
2022-08-17T23:33:29.983Z,53.40
2022-08-17T23:35:59.889Z,50.65
2022-08-17T23:38:28.942Z,49.25
2022-08-17T23:40:59.949Z,53.88
2022-08-17T23:43:29.871Z,51.95
2022-08-17T23:46:01.300Z,45.88
2022-08-17T23:48:36.571Z,49.00
2022-08-17T23:51:11.728Z,47.40
2022-08-17T23:53:47.101Z,44.50
2022-08-17T23:56:16.240Z,41.85
2022-08-17T23:58:45.778Z,41.53
